Latest Weather Observations for Palmerville

IDQ60801

Issued at 1:35 pm EST Saturday 20 September 2014 (issued every 30 minutes, with the page automatically refreshed every 10 minutes)

About weather observations | Map of weather stations | Latest weather observations for QLD | Other Formats
Station Details ID: 028004 Name: PALMERVILLE Lat: -16.00 Lon: 144.08 Height: 203.8 m
Data from the previous 72 hours. | See also: Recent months at Palmerville
Date/Time
EST
Temp
°C
App
Temp
°C
Dew
Point
Rel
Hum
%
Delta-T
°C
Wind Press
QNH
hPa
Press
MSL
hPa
Rain
since 9 am
mm
Dir
 
Spd
km/h
Gust
km/h
Spd
kts
Gust
kts
20/01:30pm 33.9 30.8 3.6 15 15.9 E 9 15 5 8 1012.5 1011.4 0.0
20/01:00pm 34.6 32.1 8.4 20 14.9 ESE 11 22 6 12 1013.4 1012.3 0.0
20/12:30pm 32.6 29.5 7.4 21 14.0 SE 13 20 7 11 1014.1 1013.0 0.0
20/12:00pm 32.3 29.3 7.9 22 13.6 ESE 13 20 7 11 1014.9 1013.8 0.0
20/11:30am 32.1 29.2 9.6 25 12.9 SSE 15 24 8 13 1015.7 1014.6 0.0
20/11:00am 30.0 28.3 10.0 29 11.4 S 9 17 5 9 1016.6 1015.5 0.0
20/10:30am 28.9 27.1 9.6 30 10.9 ENE 9 13 5 7 1017.1 1016.0 0.0
20/10:00am 27.8 26.3 10.5 34 9.8 SSE 9 13 5 7 1017.5 1016.5 0.0
20/09:30am 25.9 24.7 11.6 40 8.2 NE 9 15 5 8 1017.7 1016.7 0.0
20/09:00am 25.1 25.1 13.6 49 6.8 NE 6 11 3 6 1017.7 1016.7 0.0
20/08:30am 22.7 23.9 14.8 61 4.7 WSW 2 7 1 4 1017.8 1016.8 0.0
20/08:00am 21.2 22.9 15.1 68 3.6 CALM 0 0 0 0 1017.6 1016.6 0.0
20/07:30am 18.4 19.8 14.5 78 2.3 CALM 0 0 0 0 1017.3 1016.3 0.0
20/07:00am 15.8 17.2 14.5 92 0.7 CALM 0 0 0 0 1016.8 1015.7 0.0
20/06:30am 14.6 15.6 13.1 91 0.8 CALM 0 0 0 0 1016.3 1015.2 0.0
20/06:00am 15.1 14.8 13.3 89 1.0 SSE 7 11 4 6 1015.9 1014.8 0.0
20/05:30am 15.7 16.3 13.0 84 1.5 ESE 2 7 1 4 1015.5 1014.4 0.0
20/05:00am 17.0 16.8 13.1 78 2.2 ESE 6 7 3 4 1015.0 1013.9 0.0
20/04:30am 17.7 17.7 13.6 77 2.3 ENE 6 9 3 5 1014.7 1013.6 0.0
20/04:00am 18.3 18.4 14.4 78 2.3 E 7 11 4 6 1014.8 1013.7 0.0
20/03:30am 18.5 18.2 14.4 77 2.4 ESE 9 11 5 6 1014.8 1013.7 0.0
20/03:00am 18.7 19.5 13.8 73 2.8 E 2 6 1 3 1014.9 1013.8 0.0
20/02:30am 19.4 19.5 13.8 70 3.2 ENE 6 13 3 7 1015.0 1013.9 0.0
20/02:00am 20.1 20.1 13.6 66 3.8 NE 6 11 3 6 1015.2 1014.1 0.0
20/01:30am 20.5 20.5 13.5 64 4.1 NE 6 11 3 6 1015.4 1014.3 0.0
20/01:00am 20.7 20.3 12.9 61 4.5 NE 7 11 4 6 1015.7 1014.6 0.0
20/12:30am 21.4 20.0 12.3 56 5.2 NE 11 17 6 9 1015.7 1014.6 0.0
20/12:00am 21.9 19.9 11.6 52 5.8 NE 13 20 7 11 1015.8 1014.7 0.0
 
Date/Time
EST
Temp
°C
App
Temp
°C
Dew
Point
Rel
Hum
%
Delta-T
°C
Wind Press
QNH
hPa
Press
MSL
hPa
Rain
since 9 am
mm
Dir
 
Spd
km/h
Gust
km/h
Spd
kts
Gust
kts
19/11:30pm 22.4 20.1 10.5 47 6.6 NE 13 22 7 12 1016.0 1014.9 0.0
19/11:00pm 23.1 20.7 10.2 44 7.1 NNE 13 17 7 9 1016.0 1014.9 0.0
19/10:30pm 23.4 21.2 10.8 45 7.1 NE 13 20 7 11 1016.2 1015.1 0.0
19/10:00pm 23.5 22.1 9.5 41 7.7 NE 7 11 4 6 1016.3 1015.2 0.0
19/09:30pm 24.3 22.7 8.7 37 8.5 NE 7 11 4 6 1016.1 1015.0 0.0
19/09:00pm 25.3 22.5 8.7 35 9.0 NE 13 19 7 10 1015.9 1014.8 0.0
19/08:30pm 26.1 24.3 10.7 38 8.7 NE 11 20 6 11 1015.6 1014.5 0.0
19/08:00pm 26.9 24.8 11.0 37 9.1 NNE 13 19 7 10 1015.1 1014.0 0.0
19/07:30pm 27.7 25.5 10.9 35 9.6 NNE 13 26 7 14 1014.8 1013.7 0.0
19/07:00pm 28.6 26.0 10.8 33 10.2 NNE 15 22 8 12 1014.2 1013.1 0.0
19/06:30pm 28.9 26.3 4.4 21 12.6 N 7 11 4 6 1013.4 1012.3 0.0
19/06:00pm 31.9 28.6 -1.0 12 15.8 SW 6 11 3 6 1012.7 1011.6 0.0
19/05:30pm 33.1 29.0 -0.1 12 16.3 SW 11 15 6 8 1012.4 1011.3 0.0
19/05:00pm 33.3 30.0 0.1 12 16.4 NNE 7 11 4 6 1012.2 1011.1 0.0
19/04:30pm 33.4 30.1 0.1 12 16.4 N 7 9 4 5 1012.2 1011.1 0.0
19/04:00pm 33.6 30.5 0.3 12 16.5 SE 6 9 3 5 1012.2 1011.1 0.0
19/03:30pm 33.8 30.0 -0.7 11 16.9 SW 9 20 5 11 1012.2 1011.1 0.0
19/03:00pm 33.7 30.3 -0.8 11 16.8 SSW 7 17 4 9 1012.6 1011.5 0.0
19/02:30pm 33.7 29.9 -0.8 11 16.8 NE 9 20 5 11 1013.2 1012.1 0.0
19/02:00pm 33.7 29.1 -0.8 11 16.8 ESE 13 22 7 12 1013.8 1012.7 0.0
19/01:30pm 32.7 28.6 -0.4 12 16.1 SSE 11 17 6 9 1014.2 1013.1 0.0
19/01:00pm 33.6 28.8 0.3 12 16.5 SSE 15 20 8 11 1014.9 1013.8 0.0
19/12:30pm 32.4 28.8 0.5 13 15.8 ENE 9 15 5 8 1015.4 1014.3 0.0
19/12:00pm 31.5 28.3 0.8 14 15.1 SE 7 15 4 8 1015.9 1014.8 0.0
19/11:30am 31.3 27.9 1.6 15 14.8 SE 9 15 5 8 1016.6 1015.5 0.0
19/11:00am 30.2 26.6 0.7 15 14.4 ENE 9 17 5 9 1017.4 1016.4 0.0
19/10:30am 30.1 26.8 2.4 17 13.9 E 9 15 5 8 1017.8 1016.8 0.0
19/10:00am 28.2 24.8 1.7 18 13.0 ENE 9 13 5 7 1018.3 1017.2 0.0
19/09:30am 25.6 23.0 4.1 25 10.8 NE 7 11 4 6 1018.4 1017.3 0.0
19/09:00am 24.0 21.4 4.4 28 9.8 E 7 11 4 6 1018.5 1017.4 0.0
19/08:30am 21.8 19.1 5.7 35 8.1 E 9 13 5 7 1018.4 1017.3 0.0
19/08:00am 19.0 16.3 5.5 41 6.7 E 9 13 5 7 1018.0 1017.0 0.0
19/07:30am 17.0 14.7 5.6 47 5.6 E 7 13 4 7 1017.7 1016.7 0.0
19/07:00am 14.4 12.5 6.7 60 3.8 E 6 9 3 5 1017.3 1016.3 0.0
19/06:30am 13.0 11.1 6.8 66 3.0 E 6 7 3 4 1016.9 1015.8 0.0
19/06:00am 12.7 10.9 7.8 72 2.4 ENE 7 9 4 5 1016.6 1015.5 0.0
19/05:30am 12.3 11.6 6.8 69 2.7 CALM 0 0 0 0 1016.3 1015.2 0.0
19/05:00am 12.6 12.0 7.3 70 2.6 CALM 0 0 0 0 1016.1 1015.0 0.0
19/04:30am 12.9 12.1 6.3 64 3.2 CALM 0 0 0 0 1015.8 1014.7 0.0
19/04:00am 13.3 12.2 5.2 58 3.8 CALM 0 0 0 0 1015.6 1014.5 0.0
19/03:30am 14.0 12.7 5.9 58 3.9 E 2 7 1 4 1015.0 1013.9 0.0
19/03:00am 14.8 13.4 5.6 54 4.4 E 2 6 1 3 1015.4 1014.3 0.0
19/02:30am 15.0 12.6 5.2 52 4.7 S 7 11 4 6 1015.6 1014.5 0.0
19/02:00am 15.2 14.1 7.0 58 4.1 NE 2 6 1 3 1015.4 1014.3 0.0
19/01:30am 15.9 15.2 7.1 56 4.4 CALM 0 0 0 0 1015.6 1014.5 0.0
19/01:00am 17.1 16.7 8.3 56 4.5 CALM 0 0 0 0 1015.9 1014.8 0.0
19/12:30am 18.1 16.0 5.7 44 6.1 ENE 6 7 3 4 1016.1 1015.0 0.0
19/12:00am 19.5 17.5 6.3 42 6.6 E 6 9 3 5 1016.4 1015.3 0.0
 
Date/Time
EST
Temp
°C
App
Temp
°C
Dew
Point
Rel
Hum
%
Delta-T
°C
Wind Press
QNH
hPa
Press
MSL
hPa
Rain
since 9 am
mm
Dir
 
Spd
km/h
Gust
km/h
Spd
kts
Gust
kts
18/11:30pm 19.7 18.4 4.2 36 7.5 CALM 0 0 0 0 1016.6 1015.5 0.0
18/11:00pm 22.1 19.7 4.2 31 8.8 E 6 9 3 5 1016.8 1015.7 0.0
18/10:30pm 22.8 20.1 3.9 29 9.3 ESE 7 11 4 6 1016.6 1015.5 0.0
18/10:00pm 23.7 21.2 3.6 27 9.9 E 6 9 3 5 1016.3 1015.2 0.0
18/09:30pm 25.0 21.8 3.0 24 10.8 NE 9 13 5 7 1016.0 1014.9 0.0
18/09:00pm 25.7 22.9 3.0 23 11.2 ENE 7 11 4 6 1015.8 1014.7 0.0
18/08:30pm 26.4 22.7 2.3 21 11.8 NE 11 17 6 9 1015.5 1014.4 0.0
18/08:00pm 27.2 23.0 1.6 19 12.4 NE 13 19 7 10 1015.3 1014.2 0.0
18/07:30pm 27.8 23.0 0.5 17 13.1 NE 15 20 8 11 1014.8 1013.7 0.0
18/07:00pm 28.4 24.0 0.2 16 13.5 NE 13 20 7 11 1014.2 1013.1 0.0
18/06:30pm 29.7 24.5 0.3 15 14.2 NE 17 28 9 15 1013.8 1012.7 0.0
18/06:00pm 30.6 25.0 0.1 14 14.8 NNE 19 26 10 14 1013.4 1012.3 0.0
18/05:30pm 32.0 26.4 0.2 13 15.6 NNE 19 26 10 14 1012.9 1011.8 0.0
18/05:00pm 34.4 30.9 -1.6 10 17.4 E 7 19 4 10 1012.6 1011.5 0.0
18/04:30pm 34.9 31.4 -2.6 9 17.9 ESE 6 11 3 6 1012.4 1011.3 0.0
18/04:00pm 34.6 29.4 -2.9 9 17.8 E 15 22 8 12 1012.4 1011.3 0.0
18/03:30pm 34.8 30.4 -2.7 9 17.9 E 11 19 6 10 1012.6 1011.5 0.0
18/03:00pm 35.2 31.8 -2.4 9 18.0 E 6 11 3 6 1012.9 1011.8 0.0
18/02:30pm 35.6 30.5 -2.1 9 18.2 SE 15 20 8 11 1013.4 1012.3 0.0
18/02:00pm 35.2 30.0 -2.4 9 18.0 ESE 15 22 8 12 1013.8 1012.7 0.0
18/01:30pm 34.7 29.5 -2.8 9 17.8 SE 15 26 8 14 1014.2 1013.1 0.0
18/01:00pm 34.5 28.5 -2.9 9 17.7 ENE 19 26 10 14 1014.8 1013.7 0.0
18/12:30pm 33.8 27.7 -2.0 10 17.1 SSE 20 32 11 17 1015.5 1014.4 0.0
18/12:00pm 32.9 28.4 -0.2 12 16.2 ENE 13 24 7 13 1016.1 1015.0 0.0
18/11:30am 32.4 27.8 1.5 14 15.5 E 15 26 8 14 1016.9 1015.8 0.0
18/11:00am 29.9 26.7 3.0 18 13.6 NE 9 15 5 8 1017.6 1016.6 0.0
18/10:30am 28.5 25.9 4.1 21 12.5 NE 7 11 4 6 1018.2 1017.1 0.0
18/10:00am 26.7 24.7 7.2 29 10.4 NNE 7 11 4 6 1018.5 1017.4 0.0
18/09:30am 24.4 22.8 8.8 37 8.5 N 7 9 4 5 1018.7 1017.6 0.0
18/09:00am 22.0 20.6 8.9 43 7.0 NNW 6 9 3 5 1018.7 1017.6 -
18/08:30am 20.6 19.5 9.8 50 5.9 ENE 6 7 3 4 1018.8 1017.7 -
18/08:00am 18.8 16.8 7.3 47 5.9 E 7 9 4 5 1018.4 1017.3 -
18/07:30am 15.9 13.6 5.8 51 4.9 E 7 11 4 6 1018.0 1017.0 -
18/07:00am 11.8 10.9 5.9 67 2.8 CALM 0 6 0 3 1017.6 1016.6 -
18/06:30am 9.9 8.7 4.5 69 2.4 CALM 0 0 0 0 1017.3 1016.3 -
18/06:00am 10.2 8.6 4.6 68 2.5 SE 2 6 1 3 1017.0 1015.9 -
18/05:30am 10.5 9.2 4.0 64 2.9 CALM 0 0 0 0 1016.5 1015.4 -
18/05:00am 10.9 9.7 4.6 65 2.9 CALM 0 0 0 0 1016.3 1015.2 -
18/04:30am 11.5 9.9 4.3 61 3.3 SSE 2 6 1 3 1016.1 1015.0 -
18/04:00am 11.7 10.1 4.4 61 3.3 WSW 2 7 1 4 1016.2 1015.1 -
18/03:30am 12.2 10.8 5.6 64 3.1 ESE 2 6 1 3 1015.6 1014.5 -
18/03:00am 12.6 11.4 4.6 58 3.7 CALM 0 0 0 0 1015.8 1014.7 0.0
18/02:30am 13.0 11.5 2.8 50 4.5 CALM 0 0 0 0 1016.0 1014.9 -
18/02:00am 13.4 12.0 3.5 51 4.5 CALM 0 0 0 0 1016.1 1015.0 -
18/01:30am 14.4 12.6 3.5 48 5.0 ESE 2 6 1 3 1016.0 1014.9 -
18/01:00am 15.2 13.4 3.4 45 5.4 ESE 2 7 1 4 1016.2 1015.1 -
18/12:30am 15.8 14.2 2.2 40 6.1 CALM 0 0 0 0 1016.2 1015.1 -
18/12:00am 17.1 15.5 2.7 38 6.6 CALM 0 0 0 0 1016.6 1015.5 -
 
Date/Time
EST
Temp
°C
App
Temp
°C
Dew
Point
Rel
Hum
%
Delta-T
°C
Wind Press
QNH
hPa
Press
MSL
hPa
Rain
since 9 am
mm
Dir
 
Spd
km/h
Gust
km/h
Spd
kts
Gust
kts
17/11:30pm 18.1 16.6 2.8 36 7.1 CALM 0 0 0 0 1016.4 1015.3 -
17/11:00pm 18.3 16.9 3.4 37 7.0 CALM 0 0 0 0 1016.2 1015.1 -
17/10:30pm 21.6 18.6 1.8 27 9.3 E 7 11 4 6 1016.0 1014.9 -
17/10:00pm 22.6 19.7 2.7 27 9.5 E 7 9 4 5 1016.1 1015.0 -
17/09:30pm 23.3 20.4 2.7 26 9.9 E 7 13 4 7 1015.9 1014.8 -
17/09:00pm 23.5 20.7 2.9 26 10.0 E 7 11 4 6 1015.4 1014.3 -
17/08:30pm 24.8 22.2 4.0 26 10.4 ENE 7 11 4 6 1015.1 1014.0 -
17/08:00pm 25.5 22.8 3.5 24 10.9 ENE 7 11 4 6 1014.7 1013.6 -
17/07:30pm 26.7 22.8 3.2 22 11.7 ENE 13 20 7 11 1014.0 1012.9 -
17/07:00pm 27.3 23.2 2.4 20 12.3 ENE 13 20 7 11 1013.6 1012.5 -
17/06:30pm 28.4 23.8 1.8 18 13.1 NE 15 28 8 15 1013.2 1012.1 -
17/06:00pm 29.7 25.6 2.1 17 13.8 ENE 13 17 7 9 1012.7 1011.6 -
17/05:30pm 30.9 25.7 2.2 16 14.4 NNE 19 30 10 16 1012.1 1011.0 0.0
17/05:00pm 33.4 28.8 -3.7 9 17.2 ENE 11 17 6 9 1012.0 1010.9 0.0
17/04:30pm 33.7 29.7 -2.1 10 17.1 ENE 9 15 5 8 1011.8 1010.7 0.0
17/04:00pm 33.8 29.6 -3.5 9 17.4 SE 9 19 5 10 1011.8 1010.7 0.0
17/03:30pm 34.0 28.7 -3.3 9 17.5 S 15 28 8 15 1011.9 1010.8 0.0
17/03:00pm 33.7 29.3 -2.1 10 17.1 E 11 22 6 12 1012.1 1011.0 0.0
17/02:30pm 33.5 29.3 -1.0 11 16.7 E 11 20 6 11 1012.4 1011.3 0.0
17/02:00pm 34.1 29.2 -0.5 11 17.0 SSE 15 28 8 15 1012.9 1011.8 0.0

Other Formats:

Comma delimited format used in spreadsheet applications
http://www.bom.gov.au/fwo/IDQ60801/IDQ60801.94276.axf

JavaScript Object Notation format (JSON) in row-major order
http://www.bom.gov.au/fwo/IDQ60801/IDQ60801.94276.json